createdAt,value
2024-05-09T00:01:07.905Z,1011.27
2024-05-09T00:06:08.038Z,1011.25
2024-05-09T00:11:07.834Z,1011.20
2024-05-09T00:16:07.755Z,1011.20
2024-05-09T00:21:07.800Z,1011.18
2024-05-09T00:26:07.617Z,1011.26
2024-05-09T00:31:07.551Z,1011.26
2024-05-09T00:36:07.476Z,1011.24
2024-05-09T00:41:07.542Z,1011.19
2024-05-09T00:46:07.372Z,1011.18
2024-05-09T00:51:07.405Z,1011.18
2024-05-09T00:56:07.264Z,1011.17
2024-05-09T01:01:07.296Z,1011.14
2024-05-09T01:06:07.194Z,1011.15
2024-05-09T01:11:07.180Z,1011.17
2024-05-09T01:16:07.125Z,1011.20
2024-05-09T01:21:07.045Z,1011.18
2024-05-09T01:26:06.972Z,1011.13
2024-05-09T01:31:06.912Z,1011.12
2024-05-09T01:36:06.822Z,1011.08
2024-05-09T01:41:06.876Z,1011.09
2024-05-09T01:46:06.726Z,1011.07
2024-05-09T01:51:06.826Z,1011.04
2024-05-09T01:56:06.675Z,1011.00
2024-05-09T02:01:06.711Z,1010.99
2024-05-09T02:06:06.797Z,1010.99
2024-05-09T02:11:06.532Z,1011.00
2024-05-09T02:16:06.404Z,1010.94
2024-05-09T02:21:06.476Z,1010.93
2024-05-09T02:26:06.320Z,1010.96
2024-05-09T02:31:06.255Z,1010.96
2024-05-09T02:36:06.168Z,1010.97
2024-05-09T02:41:06.205Z,1010.98
2024-05-09T02:46:06.080Z,1011.02
2024-05-09T02:51:06.217Z,1010.99
2024-05-09T02:56:06.024Z,1011.07
2024-05-09T03:01:05.996Z,1011.03
2024-05-09T03:06:05.870Z,1011.00
2024-05-09T03:11:05.851Z,1011.00
2024-05-09T03:16:05.705Z,1010.96
2024-05-09T03:21:05.798Z,1010.98
2024-05-09T03:26:05.612Z,1010.92
2024-05-09T03:31:05.547Z,1010.88
2024-05-09T03:36:08.235Z,1010.94
2024-05-09T03:41:05.506Z,1010.92
2024-05-09T03:46:05.398Z,1010.90
2024-05-09T03:51:05.501Z,1010.89
2024-05-09T03:56:05.312Z,1010.94
2024-05-09T04:01:05.305Z,1011.00
2024-05-09T04:06:05.216Z,1010.89
2024-05-09T04:11:05.269Z,1010.96
2024-05-09T04:16:05.057Z,1010.92
2024-05-09T04:21:05.217Z,1010.92
2024-05-09T04:26:05.069Z,1010.92
2024-05-09T04:31:04.905Z,1010.97
2024-05-09T04:36:04.826Z,1010.92
2024-05-09T04:41:04.836Z,1011.00
2024-05-09T04:46:04.699Z,1010.99
2024-05-09T04:51:04.739Z,1011.01
2024-05-09T04:56:04.653Z,1010.98
2024-05-09T05:01:04.611Z,1010.98
2024-05-09T05:06:04.592Z,1011.00
2024-05-09T05:11:04.625Z,1010.98
2024-05-09T05:16:04.375Z,1011.03
2024-05-09T05:21:04.398Z,1011.01
2024-05-09T05:26:04.341Z,1011.00
2024-05-09T05:31:06.263Z,1010.95
2024-05-09T05:36:04.189Z,1010.93
2024-05-09T05:41:05.207Z,1010.92
2024-05-09T05:46:04.074Z,1010.88
2024-05-09T05:51:04.800Z,1010.92
2024-05-09T05:56:04.021Z,1010.86
2024-05-09T06:01:04.074Z,1010.93
2024-05-09T06:06:04.243Z,1010.88
2024-05-09T06:11:04.091Z,1010.86
2024-05-09T06:16:04.798Z,1010.86
2024-05-09T06:21:03.803Z,1010.82
2024-05-09T06:26:03.677Z,1010.81
2024-05-09T06:31:03.624Z,1010.70
2024-05-09T06:36:04.274Z,1010.74
2024-05-09T06:41:03.617Z,1010.75
2024-05-09T06:46:03.432Z,1010.67
2024-05-09T06:51:03.398Z,1010.63
2024-05-09T06:56:03.355Z,1010.66
2024-05-09T07:01:03.430Z,1010.63
2024-05-09T07:06:03.403Z,1010.67
2024-05-09T07:11:03.330Z,1010.64
2024-05-09T07:16:03.122Z,1010.64
2024-05-09T07:21:03.124Z,1010.67
2024-05-09T07:26:03.032Z,1010.59
2024-05-09T07:31:03.038Z,1010.59
2024-05-09T07:36:02.882Z,1010.52
2024-05-09T07:41:02.910Z,1010.45
2024-05-09T07:47:14.322Z,1010.48
2024-05-09T07:56:02.890Z,1010.44
2024-05-09T08:01:02.819Z,1010.52
2024-05-09T08:06:02.563Z,1010.39
2024-05-09T08:11:02.679Z,1010.38
2024-05-09T08:16:02.571Z,1010.27
2024-05-09T08:21:02.423Z,1010.24
2024-05-09T08:26:02.341Z,1010.23
2024-05-09T08:31:05.164Z,1010.26
2024-05-09T08:36:02.242Z,1010.22
2024-05-09T08:41:02.230Z,1010.17
2024-05-09T08:46:02.208Z,1010.15
2024-05-09T08:51:02.204Z,1010.07
2024-05-09T08:56:02.043Z,1010.12
2024-05-09T09:01:02.105Z,1010.01
2024-05-09T09:06:01.942Z,1009.97
2024-05-09T09:11:01.914Z,1009.95
2024-05-09T09:16:01.873Z,1010.00
2024-05-09T09:21:01.832Z,1009.93
2024-05-09T09:26:01.850Z,1009.97
2024-05-09T09:31:01.873Z,1009.95
2024-05-09T09:36:01.649Z,1009.83
2024-05-09T09:41:01.896Z,1009.75
2024-05-09T09:46:01.611Z,1009.70
2024-05-09T09:51:01.608Z,1009.67
2024-05-09T09:56:01.465Z,1009.64
2024-05-09T10:01:01.559Z,1009.64
2024-05-09T10:06:01.426Z,1009.56
2024-05-09T10:11:01.448Z,1009.51
2024-05-09T10:16:01.295Z,1009.49
2024-05-09T10:21:01.280Z,1009.28
2024-05-09T10:26:01.229Z,1009.52
2024-05-09T10:31:01.204Z,1009.43
2024-05-09T10:36:01.099Z,1009.35
2024-05-09T10:41:01.097Z,1009.20
2024-05-09T10:46:01.150Z,1009.16
2024-05-09T10:51:01.101Z,1009.03
2024-05-09T10:56:00.899Z,1008.84
2024-05-09T11:01:03.399Z,1009.18
2024-05-09T11:06:00.893Z,1009.07
2024-05-09T11:11:00.784Z,1008.97
2024-05-09T11:16:00.825Z,1009.03
2024-05-09T11:21:00.821Z,1009.00
2024-05-09T11:26:00.694Z,1008.97
2024-05-09T11:31:00.787Z,1008.96
2024-05-09T11:36:00.513Z,1008.93
2024-05-09T11:41:00.462Z,1008.88
2024-05-09T11:46:00.491Z,1008.91
2024-05-09T11:51:00.391Z,1008.94
2024-05-09T11:56:00.430Z,1008.84
2024-05-09T12:01:00.336Z,1008.78
2024-05-09T12:06:00.570Z,1008.60
2024-05-09T12:11:00.480Z,1008.48
2024-05-09T12:16:00.182Z,1008.33
2024-05-09T12:21:00.099Z,1008.45
2024-05-09T12:26:00.047Z,1008.21
2024-05-09T12:31:00.082Z,1008.27
2024-05-09T12:35:59.985Z,1008.27
2024-05-09T12:41:00.007Z,1008.27
2024-05-09T12:45:59.938Z,1008.31
2024-05-09T12:50:59.809Z,1008.38
2024-05-09T12:56:02.330Z,1008.25
2024-05-09T13:00:59.815Z,1008.17
2024-05-09T13:05:59.769Z,1008.14
2024-05-09T13:10:59.645Z,1008.25
2024-05-09T13:15:59.683Z,1008.08
2024-05-09T13:20:59.479Z,1008.12
2024-05-09T13:25:59.472Z,1008.06
2024-05-09T13:30:59.457Z,1008.14
2024-05-09T13:35:59.342Z,1008.09
2024-05-09T13:40:59.439Z,1008.14
2024-05-09T13:45:59.425Z,1007.99
2024-05-09T13:50:59.404Z,1007.91
2024-05-09T13:55:59.143Z,1007.77
2024-05-09T14:00:59.225Z,1007.76
2024-05-09T14:05:59.226Z,1007.71
2024-05-09T14:10:59.154Z,1007.64
2024-05-09T14:15:59.057Z,1007.60
2024-05-09T14:20:58.924Z,1007.51
2024-05-09T14:25:58.842Z,1007.46
2024-05-09T14:31:01.817Z,1007.37
2024-05-09T14:36:00.340Z,1007.44
2024-05-09T14:40:59.022Z,1007.33
2024-05-09T14:45:58.718Z,1007.32
2024-05-09T14:50:58.649Z,1007.25
2024-05-09T14:55:58.628Z,1007.26
2024-05-09T15:00:58.765Z,1007.24
2024-05-09T15:05:58.495Z,1007.15
2024-05-09T15:10:58.648Z,1007.16
2024-05-09T15:15:58.391Z,1007.12
2024-05-09T15:20:58.540Z,1007.12
2024-05-09T15:25:58.333Z,1007.06
2024-05-09T15:30:58.311Z,1006.99
2024-05-09T15:35:58.182Z,1006.98
2024-05-09T15:40:58.155Z,1007.01
2024-05-09T15:45:58.093Z,1006.97
2024-05-09T15:50:58.178Z,1006.97
2024-05-09T15:55:57.982Z,1006.95
2024-05-09T16:00:58.065Z,1006.98
2024-05-09T16:05:57.903Z,1006.93
2024-05-09T16:10:58.121Z,1006.90
2024-05-09T16:15:57.811Z,1006.90
2024-05-09T16:20:57.821Z,1006.97
2024-05-09T16:25:57.713Z,1006.98
2024-05-09T16:30:57.662Z,1006.98
2024-05-09T16:35:57.558Z,1006.97
2024-05-09T16:40:57.660Z,1006.90
2024-05-09T16:45:58.418Z,1006.89
2024-05-09T16:50:57.393Z,1006.88
2024-05-09T16:55:57.369Z,1006.88
2024-05-09T17:00:57.524Z,1006.85
2024-05-09T17:05:57.295Z,1006.84
2024-05-09T17:10:57.284Z,1006.88
2024-05-09T17:15:57.526Z,1006.95
2024-05-09T17:20:57.073Z,1006.94
2024-05-09T17:25:57.343Z,1006.89
2024-05-09T17:30:57.111Z,1006.92
2024-05-09T17:35:56.892Z,1006.86
2024-05-09T17:40:56.913Z,1006.92
2024-05-09T17:45:56.846Z,1006.91
2024-05-09T17:50:56.772Z,1006.81
2024-05-09T17:55:56.709Z,1006.83
2024-05-09T18:00:56.689Z,1006.83
2024-05-09T18:05:56.734Z,1006.85
2024-05-09T18:10:56.637Z,1006.95
2024-05-09T18:15:56.815Z,1006.95
2024-05-09T18:20:56.439Z,1006.91
2024-05-09T18:25:56.373Z,1006.94
2024-05-09T18:30:56.357Z,1006.97
2024-05-09T18:35:56.296Z,1007.10
2024-05-09T18:40:56.356Z,1007.07
2024-05-09T18:45:56.166Z,1007.20
2024-05-09T18:50:56.293Z,1007.14
2024-05-09T18:55:56.153Z,1007.21
2024-05-09T19:00:58.395Z,1007.26
2024-05-09T19:05:56.183Z,1007.28
2024-05-09T19:10:56.160Z,1007.25
2024-05-09T19:15:55.987Z,1007.33
2024-05-09T19:20:55.859Z,1007.47
2024-05-09T19:25:55.692Z,1007.40
2024-05-09T19:30:55.692Z,1007.50
2024-05-09T19:35:55.608Z,1007.51
2024-05-09T19:40:55.749Z,1007.48
2024-05-09T19:45:55.553Z,1007.45
2024-05-09T19:50:55.536Z,1007.55
2024-05-09T19:55:56.561Z,1007.59
2024-05-09T20:00:55.540Z,1007.59
2024-05-09T20:05:55.359Z,1007.66
2024-05-09T20:10:55.387Z,1007.66
2024-05-09T20:15:55.247Z,1007.75
2024-05-09T20:20:55.299Z,1007.70
2024-05-09T20:25:55.105Z,1007.71
2024-05-09T20:30:55.126Z,1007.77
2024-05-09T20:35:55.010Z,1007.81
2024-05-09T20:40:54.978Z,1007.76
2024-05-09T20:45:55.022Z,1007.84
2024-05-09T20:50:54.938Z,1007.80
2024-05-09T20:55:54.798Z,1007.85
2024-05-09T21:00:54.842Z,1007.87
2024-05-09T21:05:54.701Z,1007.91
2024-05-09T21:10:54.811Z,1007.94
2024-05-09T21:15:54.722Z,1007.93
2024-05-09T21:20:54.530Z,1007.99
2024-05-09T21:25:54.466Z,1007.94
2024-05-09T21:30:54.500Z,1007.96
2024-05-09T21:35:54.358Z,1007.94
2024-05-09T21:40:54.410Z,1007.94
2024-05-09T21:45:54.363Z,1007.93
2024-05-09T21:50:54.267Z,1007.88
2024-05-09T21:55:54.142Z,1007.87
2024-05-09T22:00:54.183Z,1007.82
2024-05-09T22:05:54.963Z,1007.75
2024-05-09T22:10:54.143Z,1007.80
2024-05-09T22:15:55.077Z,1007.85
2024-05-09T22:20:54.010Z,1007.96
2024-05-09T22:25:53.839Z,1008.03
2024-05-09T22:30:53.845Z,1008.00
2024-05-09T22:35:53.769Z,1008.00
2024-05-09T22:40:53.738Z,1008.04
2024-05-09T22:45:53.865Z,1008.02
2024-05-09T22:50:53.870Z,1008.01
2024-05-09T22:55:53.520Z,1007.97
2024-05-09T23:00:53.732Z,1007.95
2024-05-09T23:05:53.510Z,1007.93
2024-05-09T23:10:53.702Z,1007.89
2024-05-09T23:15:53.317Z,1007.88
2024-05-09T23:20:53.253Z,1007.80
2024-05-09T23:25:53.227Z,1007.81
2024-05-09T23:30:53.294Z,1007.81
2024-05-09T23:35:53.063Z,1007.80
2024-05-09T23:40:53.129Z,1007.74
2024-05-09T23:45:53.058Z,1007.70
2024-05-09T23:50:52.939Z,1007.64
2024-05-09T23:55:52.877Z,1007.62
